Time;durP1;ratioP1;P1;durP2;ratioP2;P2;SDS_P1;SDS_P2;PMS_P1;PMS_P2;Temp;Humidity;BMP_temperature;BMP_pressure;BME280_temperature;BME280_humidity;BME280_pressure;Samples;Min_cycle;Max_cycle;Signal;HPM_P1;HPM_P2
2023/03/17 00:00:28;;;;;;;1.83;1.10;;;;;;;20.04;34.69;100821.00;5051913;28;20025;-76
2023/03/17 00:02:56;;;;;;;1.48;1.00;;;;;;;20.04;34.38;100807.50;5051142;28;20037;-76
2023/03/17 00:05:21;;;;;;;3.40;1.10;;;;;;;20.04;34.73;100807.50;5045053;28;20046;-75
2023/03/17 00:07:47;;;;;;;1.92;1.30;;;;;;;19.90;34.91;100790.25;5054138;28;20097;-75
2023/03/17 00:10:16;;;;;;;1.63;1.40;;;;;;;20.00;34.58;100808.88;5063008;28;20090;-76
2023/03/17 00:12:41;;;;;;;2.22;1.15;;;;;;;20.01;34.62;100817.81;5037194;28;20025;-77
2023/03/17 00:15:07;;;;;;;1.52;1.20;;;;;;;19.94;34.45;100810.44;5048597;28;20029;-75
2023/03/17 00:17:33;;;;;;;1.27;1.08;;;;;;;19.58;34.53;100747.22;5052125;28;20017;-76
2023/03/17 00:19:58;;;;;;;1.17;1.00;;;;;;;19.72;34.67;100779.72;5062213;28;20076;-75
2023/03/17 00:22:24;;;;;;;1.67;1.17;;;;;;;19.90;34.50;100802.91;5049994;28;20060;-76
2023/03/17 00:24:50;;;;;;;1.77;1.20;;;;;;;19.89;34.45;100814.72;5052372;28;20029;-74
2023/03/17 00:27:16;;;;;;;1.75;1.10;;;;;;;19.96;34.81;100821.94;5052171;28;20106;-77
2023/03/17 00:29:42;;;;;;;2.08;1.30;;;;;;;19.96;34.87;100818.34;5037403;28;20582;-75
2023/03/17 00:32:15;;;;;;;1.85;1.15;;;;;;;19.71;34.56;100761.03;5058483;28;20059;-75
2023/03/17 00:34:40;;;;;;;1.95;1.30;;;;;;;19.74;34.70;100779.53;5072787;28;20021;-75
2023/03/17 00:37:10;;;;;;;1.27;1.17;;;;;;;19.93;34.64;100806.09;5050884;28;20084;-76
2023/03/17 00:39:35;;;;;;;1.50;0.93;;;;;;;19.70;34.84;100762.03;5058628;28;20022;-76
2023/03/17 00:42:00;;;;;;;2.42;1.23;;;;;;;19.87;34.47;100795.16;5051311;28;20114;-75
2023/03/17 00:44:26;;;;;;;1.88;1.00;;;;;;;19.93;34.42;100802.53;5054337;28;20025;-76
2023/03/17 00:46:52;;;;;;;1.55;1.10;;;;;;;19.55;34.63;100743.03;5050217;28;20064;-76
2023/03/17 00:49:20;;;;;;;1.60;1.17;;;;;;;19.92;34.45;100806.25;5059060;28;20036;-76
2023/03/17 00:51:47;;;;;;;1.65;1.15;;;;;;;19.91;34.35;100805.41;5072523;28;20021;-76
2023/03/17 00:54:13;;;;;;;1.90;1.27;;;;;;;19.32;34.67;100702.53;5053780;28;20057;-76
2023/03/17 00:56:39;;;;;;;1.98;1.33;;;;;;;19.91;34.62;100793.78;5058158;28;20030;-76
2023/03/17 00:59:14;;;;;;;1.70;1.10;;;;;;;19.53;34.80;100728.03;5059430;28;20029;-76
2023/03/17 01:01:40;;;;;;;2.15;1.13;;;;;;;19.91;34.60;100789.22;5057076;28;20036;-76
2023/03/17 01:04:09;;;;;;;2.15;1.23;;;;;;;19.80;34.57;100781.53;5052897;28;20025;-76
2023/03/17 01:06:35;;;;;;;1.15;0.95;;;;;;;19.91;34.75;100801.88;5047676;28;20081;-75
2023/03/17 01:09:00;;;;;;;1.77;1.30;;;;;;;19.64;34.61;100760.88;5051189;28;20048;-75
2023/03/17 01:11:25;;;;;;;1.88;1.40;;;;;;;19.61;34.76;100746.91;5071469;28;20029;-76
2023/03/17 01:13:51;;;;;;;1.73;1.00;;;;;;;19.89;34.70;100791.25;5050852;28;20035;-76
2023/03/17 01:16:16;;;;;;;1.00;0.90;;;;;;;19.89;34.76;100787.72;5059559;28;20047;-76
2023/03/17 01:18:42;;;;;;;1.08;0.98;;;;;;;19.84;34.80;100779.34;5053991;28;20052;-76
2023/03/17 01:21:07;;;;;;;0.90;0.80;;;;;;;19.83;34.75;100766.84;5054139;28;20029;-76
2023/03/17 01:23:33;;;;;;;1.10;1.00;;;;;;;19.62;34.61;100735.09;5057403;28;20033;-76
2023/03/17 01:25:58;;;;;;;1.05;0.95;;;;;;;19.90;34.26;100767.81;5060243;28;20025;-76
2023/03/17 01:28:24;;;;;;;1.70;1.00;;;;;;;19.81;34.75;100748.16;5049092;28;20053;-75
2023/03/17 01:30:49;;;;;;;1.52;1.10;;;;;;;19.85;34.63;100752.16;5067750;28;20021;-76
2023/03/17 01:33:15;;;;;;;2.50;1.00;;;;;;;19.70;34.27;100718.88;5057763;28;20025;-76
2023/03/17 01:35:42;;;;;;;1.20;0.93;;;;;;;19.85;34.42;100735.16;5050377;28;20053;-75
2023/03/17 01:38:08;;;;;;;1.65;1.10;;;;;;;19.90;34.63;100736.28;5050580;28;20101;-75
2023/03/17 01:40:37;;;;;;;1.35;1.20;;;;;;;19.78;34.52;100720.69;5048830;28;20044;-75
2023/03/17 01:43:07;;;;;;;;;;;;;;;19.93;34.61;100748.56;5059425;28;20112;-75
2023/03/17 01:46:12;;;;;;;1.65;1.10;;;;;;;19.92;34.27;100749.56;5049653;28;19956;-75
2023/03/17 01:48:43;;;;;;;2.05;1.15;;;;;;;19.76;34.16;100731.66;5058935;28;20041;-74
2023/03/17 01:51:13;;;;;;;1.83;1.30;;;;;;;19.91;34.60;100737.94;5052022;28;20061;-75
2023/03/17 01:53:38;;;;;;;1.73;0.90;;;;;;;19.89;34.27;100737.31;5058799;28;20037;-74
2023/03/17 01:56:05;;;;;;;1.38;1.00;;;;;;;19.92;34.26;100742.34;5051398;28;20087;-75
2023/03/17 01:58:31;;;;;;;0.98;0.88;;;;;;;19.93;34.56;100743.19;5051791;28;20022;-76
2023/03/17 02:00:56;;;;;;;1.45;1.10;;;;;;;19.65;34.54;100705.09;5066667;28;20029;-75
2023/03/17 02:03:22;;;;;;;1.60;1.10;;;;;;;19.88;34.26;100738.31;5051529;28;20036;-75
2023/03/17 02:05:50;;;;;;;1.48;1.20;;;;;;;19.93;34.46;100735.94;5066361;28;20072;-76
2023/03/17 02:08:16;;;;;;;1.08;0.85;;;;;;;19.94;34.13;100737.59;5052326;28;20029;-76
2023/03/17 02:10:43;;;;;;;2.05;0.90;;;;;;;19.96;34.44;100734.72;5069413;28;20093;-76
2023/03/17 02:13:10;;;;;;;2.67;1.45;;;;;;;19.65;34.33;100670.03;5051406;28;20822;-75
2023/03/17 02:15:47;;;;;;;1.80;1.25;;;;;;;19.96;34.50;100723.91;5051326;28;20045;-76
2023/03/17 02:18:13;;;;;;;1.38;1.20;;;;;;;19.33;34.12;100634.16;5048403;28;20018;-76
2023/03/17 02:20:38;;;;;;;1.80;1.15;;;;;;;19.96;34.29;100722.09;5056781;28;20033;-75
2023/03/17 02:23:05;;;;;;;1.08;0.90;;;;;;;19.87;34.26;100709.66;5054589;28;20033;-75
2023/03/17 02:25:33;;;;;;;1.38;1.10;;;;;;;19.96;34.29;100711.28;5049691;28;20029;-75
2023/03/17 02:28:03;;;;;;;1.50;1.08;;;;;;;19.95;34.01;100714.97;5060089;28;20039;-75
2023/03/17 02:30:28;;;;;;;1.67;1.40;;;;;;;19.96;34.06;100719.38;5058975;28;20036;-76
2023/03/17 02:32:53;;;;;;;2.05;0.98;;;;;;;19.97;34.03;100710.25;5058381;28;20433;-75
2023/03/17 02:35:19;;;;;;;1.20;1.10;;;;;;;19.92;34.18;100696.47;5052989;28;20045;-76
2023/03/17 02:37:45;;;;;;;1.73;1.00;;;;;;;19.98;33.88;100713.78;5055125;28;20100;-75
2023/03/17 02:40:12;;;;;;;1.55;1.10;;;;;;;19.97;34.25;100717.53;5045718;28;20029;-77
2023/03/17 02:42:40;;;;;;;1.02;0.93;;;;;;;19.81;33.99;100687.97;5048788;28;20060;-75
2023/03/17 02:45:07;;;;;;;1.10;0.98;;;;;;;19.98;34.37;100703.84;5049108;28;20112;-76
2023/03/17 02:47:33;;;;;;;2.33;1.20;;;;;;;19.70;34.20;100660.38;5059429;28;20028;-76
2023/03/17 02:49:59;;;;;;;2.63;1.33;;;;;;;19.98;34.31;100711.09;5055843;28;20033;-76
2023/03/17 02:52:24;;;;;;;1.70;1.08;;;;;;;19.47;34.17;100625.28;5049105;28;20045;-76
2023/03/17 02:54:50;;;;;;;1.92;1.33;;;;;;;20.00;34.27;100709.03;5057052;28;20046;-76
2023/03/17 02:57:15;;;;;;;2.05;1.10;;;;;;;20.00;34.10;100705.50;5047455;28;20025;-76
2023/03/17 02:59:41;;;;;;;1.77;1.23;;;;;;;19.87;34.17;100676.44;5062104;28;20021;-75
2023/03/17 03:02:06;;;;;;;1.88;1.05;;;;;;;20.00;34.28;100695.53;5048123;28;20092;-75
2023/03/17 03:04:31;;;;;;;1.23;0.90;;;;;;;20.01;34.09;100688.28;5059630;28;20025;-76
2023/03/17 03:06:57;;;;;;;1.48;1.05;;;;;;;19.73;34.25;100662.72;5057301;28;20056;-76
2023/03/17 03:09:23;;;;;;;1.73;1.05;;;;;;;20.03;33.94;100694.34;5060869;28;20033;-76
2023/03/17 03:11:48;;;;;;;1.60;1.20;;;;;;;19.72;33.94;100652.09;5062830;28;20066;-76
2023/03/17 03:14:14;;;;;;;1.42;1.20;;;;;;;19.87;34.09;100673.72;5058403;28;20093;-75
2023/03/17 03:16:40;;;;;;;2.13;1.20;;;;;;;19.58;34.32;100628.56;5054418;28;20068;-76
2023/03/17 03:19:06;;;;;;;1.70;1.10;;;;;;;20.04;34.04;100698.72;5050027;28;20021;-76
2023/03/17 03:21:32;;;;;;;1.40;0.90;;;;;;;20.05;34.03;100705.78;5062274;28;20033;-76
2023/03/17 03:23:57;;;;;;;1.42;0.80;;;;;;;19.85;34.16;100671.22;5072850;28;20048;-75
2023/03/17 03:26:23;;;;;;;1.58;1.00;;;;;;;19.98;34.11;100693.03;5053675;28;20033;-76
2023/03/17 03:28:48;;;;;;;1.55;1.20;;;;;;;20.05;34.25;100711.19;5058651;28;20022;-76
2023/03/17 03:31:14;;;;;;;1.48;1.00;;;;;;;20.06;34.03;100716.44;5048079;28;20029;-76
2023/03/17 03:33:40;;;;;;;1.15;0.80;;;;;;;20.05;34.10;100709.38;5057292;28;20067;-75
2023/03/17 03:36:06;;;;;;;1.60;1.30;;;;;;;19.69;34.30;100657.84;5051626;28;20041;-75
2023/03/17 03:38:32;;;;;;;1.00;0.80;;;;;;;20.04;34.01;100698.72;5059838;28;20044;-76
2023/03/17 03:40:57;;;;;;;1.02;0.93;;;;;;;19.70;34.22;100633.38;5063452;28;20033;-75
2023/03/17 03:43:22;;;;;;;1.20;0.80;;;;;;;19.86;33.98;100650.47;5055476;28;20029;-76
2023/03/17 03:45:48;;;;;;;1.10;1.00;;;;;;;20.01;33.92;100672.09;5064872;28;20070;-76
2023/03/17 03:48:13;;;;;;;1.73;1.10;;;;;;;19.89;33.97;100659.06;5064711;28;20475;-75
2023/03/17 03:50:38;;;;;;;0.93;0.82;;;;;;;20.07;34.29;100695.69;5050299;28;20398;-75
2023/03/17 03:53:04;;;;;;;1.23;1.10;;;;;;;19.96;34.17;100669.94;5038964;28;20029;-76
2023/03/17 03:55:29;;;;;;;1.88;1.10;;;;;;;20.09;34.06;100696.31;5066139;28;20835;-76
2023/03/17 03:57:55;;;;;;;1.00;0.90;;;;;;;20.09;33.99;100704.41;5035530;28;20052;-74
2023/03/17 04:00:20;;;;;;;1.52;1.08;;;;;;;19.48;34.32;100613.47;5046700;28;20036;-75
2023/03/17 04:02:46;;;;;;;1.25;1.00;;;;;;;20.04;34.01;100704.13;5049939;28;20021;-75
2023/03/17 04:05:17;;;;;;;2.08;1.00;;;;;;;20.08;34.15;100717.06;5046278;28;20029;-74
2023/03/17 04:07:42;;;;;;;0.95;0.90;;;;;;;20.07;33.95;100714.56;5052084;28;20021;-74
2023/03/17 04:10:11;;;;;;;1.48;1.02;;;;;;;19.97;33.93;100688.66;5048390;28;20127;-74
2023/03/17 04:12:38;;;;;;;1.13;0.98;;;;;;;19.93;34.06;100679.25;5048650;28;20033;-74
2023/03/17 04:15:04;;;;;;;1.30;0.80;;;;;;;19.78;33.87;100654.06;5066474;28;20017;-75
2023/03/17 04:17:30;;;;;;;1.27;1.15;;;;;;;20.12;33.75;100712.16;5047534;28;20032;-74
2023/03/17 04:19:56;;;;;;;1.85;1.23;;;;;;;19.99;33.90;100680.38;5049256;28;20017;-76
2023/03/17 04:22:21;;;;;;;1.08;0.98;;;;;;;20.13;33.98;100708.44;5061718;28;20025;-76
2023/03/17 04:24:46;;;;;;;0.88;0.75;;;;;;;20.14;33.85;100699.34;5055494;28;20028;-76
2023/03/17 04:27:14;;;;;;;1.52;1.30;;;;;;;20.14;33.92;100702.03;5048546;28;20029;-76
2023/03/17 04:29:40;;;;;;;1.33;0.95;;;;;;;20.13;34.07;100692.22;5048363;28;20026;-76
2023/03/17 04:32:06;;;;;;;1.40;1.05;;;;;;;20.15;33.74;100695.59;5064845;28;20077;-76
2023/03/17 04:34:31;;;;;;;1.20;0.90;;;;;;;20.10;33.89;100693.47;5055712;28;20056;-76
2023/03/17 04:36:56;;;;;;;1.23;1.00;;;;;;;19.81;33.73;100661.81;5048070;28;20084;-75
2023/03/17 04:39:22;;;;;;;1.88;1.08;;;;;;;20.16;33.77;100721.56;5052637;28;20511;-76
2023/03/17 04:41:47;;;;;;;1.83;1.42;;;;;;;20.18;33.57;100722.25;5051839;28;20021;-76
2023/03/17 04:44:13;;;;;;;1.40;0.98;;;;;;;19.93;33.89;100673.88;5050958;28;20059;-74
2023/03/17 04:46:38;;;;;;;1.58;0.95;;;;;;;19.81;33.86;100652.88;5050893;28;20067;-75
2023/03/17 04:49:03;;;;;;;1.50;1.05;;;;;;;20.15;33.85;100715.34;5047584;28;20089;-75
2023/03/17 04:51:29;;;;;;;1.10;1.00;;;;;;;20.20;33.69;100725.59;5067143;28;20029;-76
2023/03/17 04:53:54;;;;;;;1.65;1.17;;;;;;;20.13;33.99;100711.13;5053615;28;20040;-75
2023/03/17 04:56:20;;;;;;;1.85;1.10;;;;;;;20.20;33.53;100721.03;5055433;28;20051;-75
2023/03/17 04:58:45;;;;;;;1.10;0.95;;;;;;;20.03;33.88;100699.75;5051202;28;20017;-76
2023/03/17 05:01:11;;;;;;;1.33;1.20;;;;;;;20.21;34.09;100713.75;5056691;28;20028;-76
2023/03/17 05:03:36;;;;;;;1.10;1.00;;;;;;;20.21;33.91;100714.59;5059346;28;20027;-75
2023/03/17 05:06:02;;;;;;;1.23;0.95;;;;;;;19.93;33.69;100673.03;5046649;28;20053;-75
2023/03/17 05:08:28;;;;;;;0.88;0.75;;;;;;;20.22;33.76;100716.31;5061828;28;20033;-75
2023/03/17 05:10:54;;;;;;;1.13;0.90;;;;;;;19.97;33.94;100671.66;5060252;28;20036;-76
2023/03/17 05:13:20;;;;;;;1.55;1.10;;;;;;;20.24;33.71;100716.09;5043308;28;20060;-76
2023/03/17 05:15:46;;;;;;;1.60;1.15;;;;;;;20.05;33.51;100689.59;5045676;28;20025;-76
2023/03/17 05:18:11;;;;;;;1.45;1.08;;;;;;;19.83;33.54;100650.84;5056143;28;20096;-77
2023/03/17 05:20:36;;;;;;;1.10;1.00;;;;;;;20.19;33.37;100705.84;5059736;28;20056;-72
2023/03/17 05:23:02;;;;;;;1.85;1.20;;;;;;;20.28;33.84;100714.72;5048607;28;20036;-72
2023/03/17 05:25:27;;;;;;;1.15;0.90;;;;;;;20.27;33.73;100710.34;5058948;28;20036;-72
2023/03/17 05:27:52;;;;;;;1.45;0.98;;;;;;;20.31;33.52;100724.34;5045419;28;20056;-72
2023/03/17 05:30:18;;;;;;;7.55;1.23;;;;;;;20.04;33.69;100688.78;5061051;28;20105;-73
2023/03/17 05:32:43;;;;;;;2.20;1.05;;;;;;;20.20;33.53;100704.81;5053668;28;20051;-73
2023/03/17 05:35:09;;;;;;;1.20;0.90;;;;;;;20.30;33.84;100719.94;5064343;28;20474;-72
2023/03/17 05:37:34;;;;;;;7.70;1.00;;;;;;;20.39;33.64;100732.34;5059033;28;20029;-72
2023/03/17 05:39:59;;;;;;;1.45;0.93;;;;;;;20.18;33.50;100689.84;5069297;28;20032;-73
2023/03/17 05:42:25;;;;;;;1.90;1.23;;;;;;;20.41;33.88;100723.03;5050145;28;20053;-74
2023/03/17 05:44:50;;;;;;;2.90;1.25;;;;;;;20.34;33.80;100715.84;5054256;28;20500;-74
2023/03/17 05:47:15;;;;;;;0.88;0.70;;;;;;;20.42;33.94;100719.31;5055382;28;20043;-71
2023/03/17 05:49:41;;;;;;;2.95;1.05;;;;;;;20.43;34.00;100718.31;5053487;28;20053;-71
2023/03/17 05:52:06;;;;;;;1.63;1.00;;;;;;;20.45;34.08;100704.63;5054905;28;20037;-71
2023/03/17 05:54:31;;;;;;;1.20;0.80;;;;;;;20.25;33.99;100684.53;5058753;28;20025;-71
2023/03/17 05:56:57;;;;;;;1.15;1.00;;;;;;;20.45;34.38;100704.63;5062437;28;20024;-71
2023/03/17 05:59:22;;;;;;;2.42;1.00;;;;;;;20.34;34.13;100697.78;5059094;28;20044;-70
2023/03/17 06:01:47;;;;;;;2.22;1.42;;;;;;;20.28;34.30;100676.94;5060235;28;20051;-71
2023/03/17 06:04:13;;;;;;;1.88;1.20;;;;;;;20.47;34.36;100697.16;5061218;28;20025;-72
2023/03/17 06:06:38;;;;;;;2.25;1.00;;;;;;;20.32;34.20;100674.69;5058919;28;20179;-70
2023/03/17 06:09:04;;;;;;;1.63;1.00;;;;;;;20.49;34.46;100694.31;5053120;28;20025;-72
2023/03/17 06:11:30;;;;;;;2.28;1.02;;;;;;;20.51;34.41;100692.25;5058903;28;20094;-70
2023/03/17 06:13:55;;;;;;;2.13;1.05;;;;;;;20.38;34.39;100676.66;5059002;28;20021;-72
2023/03/17 06:16:21;;;;;;;10.20;1.63;;;;;;;20.33;34.95;100668.28;5051562;28;20184;-71
2023/03/17 06:18:46;;;;;;;3.13;1.13;;;;;;;20.50;34.55;100674.38;5056850;28;20017;-72
2023/03/17 06:21:12;;;;;;;3.85;0.73;;;;;;;20.58;34.38;100680.53;5060629;28;20024;-72
2023/03/17 06:23:37;;;;;;;4.50;1.17;;;;;;;20.60;34.81;100670.41;5041562;28;20029;-71
2023/03/17 06:26:03;;;;;;;5.50;1.40;;;;;;;20.60;34.34;100686.59;5059056;28;20029;-73
2023/03/17 06:28:29;;;;;;;1.45;0.82;;;;;;;20.45;34.43;100661.41;5056727;28;20029;-74
2023/03/17 06:30:55;;;;;;;2.35;1.00;;;;;;;20.54;34.46;100660.31;5061537;28;20028;-71
2023/03/17 06:33:20;;;;;;;3.65;1.23;;;;;;;20.63;34.77;100677.28;5063185;28;20029;-72
2023/03/17 06:35:46;;;;;;;2.13;1.00;;;;;;;20.63;34.54;100686.22;5056154;28;20033;-71
2023/03/17 06:38:12;;;;;;;2.38;1.00;;;;;;;20.49;34.49;100665.44;5058236;28;20083;-71
2023/03/17 06:40:37;;;;;;;2.60;1.20;;;;;;;20.44;34.72;100668.66;5058958;28;20104;-73
2023/03/17 06:43:03;;;;;;;1.45;1.00;;;;;;;20.66;34.44;100690.41;5051631;28;20037;-74
2023/03/17 06:45:28;;;;;;;1.27;1.00;;;;;;;20.67;34.81;100687.53;5065212;28;20052;-72
2023/03/17 06:47:54;;;;;;;2.67;0.90;;;;;;;20.44;34.49;100668.66;5068310;28;20029;-72
2023/03/17 06:50:19;;;;;;;1.67;1.05;;;;;;;20.41;34.50;100660.09;5067934;28;20032;-73
2023/03/17 06:52:45;;;;;;;2.55;1.10;;;;;;;20.34;34.72;100651.03;5058880;28;20033;-73
2023/03/17 06:55:11;;;;;;;1.70;1.02;;;;;;;20.70;34.71;100710.63;5060386;28;20717;-72
2023/03/17 06:57:36;;;;;;;3.97;1.98;;;;;;;20.53;34.41;100672.16;5060028;28;20051;-70
2023/03/17 07:00:05;;;;;;;1.55;1.10;;;;;;;20.72;34.60;100704.00;5059914;28;20494;-72
2023/03/17 07:02:32;;;;;;;3.35;1.33;;;;;;;20.73;34.79;100718.38;5061872;28;20032;-72
2023/03/17 07:04:57;;;;;;;6.07;1.30;;;;;;;20.74;34.67;100722.75;5059034;28;20020;-71
2023/03/17 07:07:23;;;;;;;5.20;0.90;;;;;;;20.77;34.52;100724.22;5053726;28;20031;-73
2023/03/17 07:09:50;;;;;;;2.33;0.88;;;;;;;20.26;34.74;100630.34;5059549;28;20024;-71
2023/03/17 07:12:15;;;;;;;1.35;1.00;;;;;;;20.54;34.64;100664.88;5060425;28;20107;-69
2023/03/17 07:14:41;;;;;;;1.65;1.00;;;;;;;20.64;34.27;100689.75;5052405;28;20040;-72
2023/03/17 07:17:06;;;;;;;1.88;1.05;;;;;;;20.72;34.62;100705.88;5055945;28;20032;-72
2023/03/17 07:19:33;;;;;;;1.63;0.80;;;;;;;20.53;34.64;100680.25;5051398;28;20022;-74
2023/03/17 07:21:59;;;;;;;3.13;1.27;;;;;;;20.72;34.60;100708.56;5057515;28;20040;-73
2023/03/17 07:24:24;;;;;;;1.85;1.20;;;;;;;20.64;34.29;100693.28;5054634;28;20024;-74
2023/03/17 07:26:50;;;;;;;1.17;0.93;;;;;;;20.57;34.21;100670.75;5070391;28;20024;-73
2023/03/17 07:29:16;;;;;;;1.85;0.98;;;;;;;20.45;34.65;100653.31;5051416;28;20061;-73
2023/03/17 07:31:42;;;;;;;1.67;0.93;;;;;;;20.71;34.56;100688.00;5058839;28;20022;-73
2023/03/17 07:34:08;;;;;;;2.17;1.00;;;;;;;20.67;34.06;100682.13;5059703;28;20019;-73
2023/03/17 07:36:33;;;;;;;1.50;1.20;;;;;;;20.85;34.31;100713.34;5047182;28;20116;-73
2023/03/17 07:39:00;;;;;;;3.28;1.13;;;;;;;20.32;34.16;100620.69;5057215;28;20033;-73
2023/03/17 07:41:26;;;;;;;1.40;0.93;;;;;;;20.62;34.28;100675.59;5055088;28;20049;-74
2023/03/17 07:43:51;;;;;;;2.08;1.10;;;;;;;20.50;33.97;100652.78;5050829;28;20013;-74
2023/03/17 07:46:17;;;;;;;1.25;0.90;;;;;;;20.53;33.93;100649.72;5051671;28;20052;-75
2023/03/17 07:48:42;;;;;;;2.00;1.13;;;;;;;20.67;34.00;100670.47;5063698;28;20057;-74
2023/03/17 07:51:12;;;;;;;1.70;1.17;;;;;;;20.92;33.91;100708.88;5051800;28;20029;-76
2023/03/17 07:53:38;;;;;;;2.55;0.95;;;;;;;20.76;33.75;100696.38;5050639;28;20025;-72
2023/03/17 07:56:04;;;;;;;1.30;0.85;;;;;;;20.85;33.77;100702.53;5036807;28;20021;-73
2023/03/17 07:58:29;;;;;;;0.90;0.80;;;;;;;20.78;34.14;100698.91;5039055;28;20830;-73
2023/03/17 08:00:56;;;;;;;2.42;0.93;;;;;;;20.93;34.05;100715.94;5053868;28;20063;-73
2023/03/17 08:03:22;;;;;;;1.42;1.00;;;;;;;20.70;33.77;100678.22;5053631;28;20037;-74
2023/03/17 08:05:56;;;;;;;1.67;1.10;;;;;;;20.94;34.08;100712.22;5058399;28;20063;-73
2023/03/17 08:08:23;;;;;;;2.65;1.00;;;;;;;20.96;34.01;100702.91;5057580;28;20119;-74
2023/03/17 08:10:49;;;;;;;0.88;0.80;;;;;;;20.99;34.14;100693.59;5066782;28;20035;-73
2023/03/17 08:13:14;;;;;;;4.53;1.40;;;;;;;21.02;34.02;100685.09;5053892;28;20025;-74
2023/03/17 08:15:40;;;;;;;2.17;0.93;;;;;;;21.10;34.05;100694.97;5051435;28;20089;-72
2023/03/17 08:18:06;;;;;;;2.28;1.15;;;;;;;21.15;33.81;100687.97;5059732;28;20024;-72
2023/03/17 08:20:32;;;;;;;4.97;1.00;;;;;;;21.17;33.81;100685.91;5059200;28;20088;-72
2023/03/17 08:22:57;;;;;;;3.88;1.00;;;;;;;21.18;34.07;100694.88;5050824;28;20033;-73
2023/03/17 08:25:23;;;;;;;3.17;1.40;;;;;;;21.17;33.92;100682.38;5048945;28;20028;-72
2023/03/17 08:27:48;;;;;;;1.13;0.90;;;;;;;20.94;33.73;100650.91;5049300;28;20036;-72
2023/03/17 08:30:15;;;;;;;3.42;1.25;;;;;;;20.92;33.99;100641.31;5062393;28;20536;-71
2023/03/17 08:32:40;;;;;;;2.55;0.95;;;;;;;21.17;33.76;100669.69;5060039;28;20017;-72
2023/03/17 08:35:06;;;;;;;7.28;2.13;;;;;;;21.19;33.81;100670.31;5051286;28;20033;-73
2023/03/17 08:37:31;;;;;;;1.63;0.95;;;;;;;21.21;33.73;100680.97;5059785;28;20055;-72
2023/03/17 08:39:57;;;;;;;1.98;1.23;;;;;;;20.91;33.79;100631.53;5053658;28;20033;-72
2023/03/17 08:42:23;;;;;;;4.30;1.73;;;;;;;20.89;33.87;100628.16;5053244;28;20131;-72
2023/03/17 08:44:48;;;;;;;2.65;1.17;;;;;;;21.22;33.96;100685.34;5047588;28;20033;-74
2023/03/17 08:47:14;;;;;;;1.45;0.82;;;;;;;21.23;33.98;100684.31;5049475;28;20056;-73
2023/03/17 08:49:39;;;;;;;2.45;0.93;;;;;;;21.24;33.53;100686.00;5050791;28;20466;-73
2023/03/17 08:52:05;;;;;;;2.50;0.88;;;;;;;21.25;33.89;100682.28;5052140;28;20028;-72
2023/03/17 08:54:31;;;;;;;2.88;1.33;;;;;;;21.19;33.96;100672.19;5048517;28;20067;-73
2023/03/17 08:56:56;;;;;;;2.40;1.20;;;;;;;21.16;33.71;100675.31;5047935;28;20030;-73
2023/03/17 08:59:22;;;;;;;1.13;1.00;;;;;;;20.90;33.91;100629.88;5052562;28;20466;-72
2023/03/17 09:01:47;;;;;;;7.88;1.27;;;;;;;21.27;33.86;100699.13;5055866;28;20029;-73
2023/03/17 09:04:13;;;;;;;1.45;1.00;;;;;;;21.28;33.71;100697.25;5044272;28;20071;-72
2023/03/17 09:06:39;;;;;;;2.70;0.80;;;;;;;20.95;33.77;100628.25;5052997;28;20099;-71
2023/03/17 09:09:05;;;;;;;2.22;1.08;;;;;;;21.10;33.74;100660.66;5061155;28;20717;-72
2023/03/17 09:11:31;;;;;;;1.05;0.80;;;;;;;21.33;33.78;100701.13;5054714;28;20025;-72
2023/03/17 09:13:57;;;;;;;2.75;1.10;;;;;;;21.34;33.82;100691.97;5052447;28;20087;-72
2023/03/17 09:16:23;;;;;;;1.17;1.00;;;;;;;21.36;33.99;100698.03;5058106;28;20028;-71
2023/03/17 09:18:49;;;;;;;2.13;0.85;;;;;;;21.20;33.98;100663.09;5060380;28;20024;-72
2023/03/17 09:21:15;;;;;;;2.10;1.00;;;;;;;21.38;33.76;100679.75;5054610;28;20021;-72
2023/03/17 09:23:41;;;;;;;1.95;0.90;;;;;;;21.34;33.87;100672.22;5048719;28;20083;-70
2023/03/17 09:26:06;;;;;;;1.75;0.88;;;;;;;21.08;33.85;100630.28;5059939;28;20029;-71
2023/03/17 09:28:31;;;;;;;1.73;0.93;;;;;;;20.96;34.01;100607.47;5058742;28;20041;-73
2023/03/17 09:31:01;;;;;;;2.30;1.08;;;;;;;21.07;33.67;100634.03;5061537;28;20025;-71
2023/03/17 09:33:27;;;;;;;4.70;1.27;;;;;;;21.26;33.88;100654.19;5048846;28;20029;-73
2023/03/17 09:35:55;;;;;;;1.13;0.85;;;;;;;21.49;33.78;100694.63;5045833;28;20817;-73
2023/03/17 09:38:22;;;;;;;1.20;0.80;;;;;;;21.44;33.88;100681.69;5057148;28;20022;-74
2023/03/17 09:40:52;;;;;;;3.85;1.23;;;;;;;21.43;33.82;100684.59;5067593;28;20297;-72
2023/03/17 09:43:40;;;;;;;3.42;1.10;;;;;;;21.53;33.91;100695.09;5063079;28;20029;-75
2023/03/17 09:46:44;;;;;;;3.47;0.80;;;;;;;21.57;33.91;100688.28;5057480;28;20115;-72
2023/03/17 09:49:14;;;;;;;2.10;1.00;;;;;;;21.27;34.24;100644.22;5044529;28;20132;-72
2023/03/17 09:51:39;;;;;;;2.92;1.17;;;;;;;21.51;33.88;100683.63;5054058;28;20029;-73
2023/03/17 09:54:17;;;;;;;1.40;0.93;;;;;;;21.60;33.87;100683.31;5053591;28;20025;-73
2023/03/17 09:56:46;;;;;;;1.27;0.90;;;;;;;21.57;34.00;100677.44;5070395;28;20036;-73
2023/03/17 09:59:17;;;;;;;;;;;;;;;21.68;33.76;100682.38;5056265;28;20029;-73
2023/03/17 10:01:43;;;;;;;2.20;1.20;;;;;;;21.25;34.06;100624.66;5052683;28;19967;-73
2023/03/17 10:04:09;;;;;;;1.02;0.90;;;;;;;21.33;33.84;100632.69;5054687;28;20045;-74
2023/03/17 10:06:37;;;;;;;1.10;0.68;;;;;;;21.73;33.99;100693.44;5051255;28;20045;-74
2023/03/17 10:09:28;;;;;;;2.50;1.02;;;;;;;21.75;33.89;100699.53;5049794;28;20029;-72
2023/03/17 10:12:03;;;;;;;1.20;0.90;;;;;;;21.74;33.80;100695.13;5049862;28;20386;-73
2023/03/17 10:14:59;;;;;;;3.17;0.88;;;;;;;21.75;33.96;100704.06;5070917;28;20045;-73
2023/03/17 10:17:27;;;;;;;1.08;0.70;;;;;;;21.52;33.62;100667.22;5066043;28;20029;-74
2023/03/17 10:20:04;;;;;;;1.33;0.70;;;;;;;21.45;33.79;100645.50;5068117;28;20056;-74
2023/03/17 10:22:37;;;;;;;1.40;0.90;;;;;;;21.79;33.65;100703.50;5051913;28;20032;-74
2023/03/17 10:25:09;;;;;;;1.75;0.95;;;;;;;21.56;33.95;100665.78;5055246;28;20036;-73
2023/03/17 10:27:36;;;;;;;1.05;0.85;;;;;;;21.54;33.60;100665.16;5053167;28;20040;-73
2023/03/17 10:30:02;;;;;;;1.15;0.80;;;;;;;21.80;33.67;100710.59;5051351;28;20052;-73
2023/03/17 10:32:29;;;;;;;1.23;0.75;;;;;;;21.62;33.72;100683.13;5051891;28;20048;-73
2023/03/17 10:34:55;;;;;;;1.52;0.77;;;;;;;21.80;33.50;100707.06;5066720;28;20075;-73
2023/03/17 10:37:22;;;;;;;1.38;0.85;;;;;;;21.72;33.52;100686.38;5070994;28;20104;-73
2023/03/17 10:39:50;;;;;;;2.42;0.95;;;;;;;21.71;33.67;100687.41;5051753;28;20025;-72
2023/03/17 10:42:22;;;;;;;2.65;1.13;;;;;;;21.78;33.87;100684.75;5051373;28;20044;-74
2023/03/17 10:44:57;;;;;;;2.50;1.17;;;;;;;21.77;33.88;100675.78;5052494;28;20026;-73
2023/03/17 10:47:30;;;;;;;1.02;0.73;;;;;;;21.76;33.70;100682.25;5053331;28;20081;-73
2023/03/17 10:49:57;;;;;;;1.13;0.93;;;;;;;21.37;33.61;100617.75;5044412;28;20569;-73
2023/03/17 10:52:29;;;;;;;1.67;1.20;;;;;;;21.76;33.64;100684.94;5050057;28;20034;-73
2023/03/17 10:54:54;;;;;;;1.95;1.00;;;;;;;21.69;33.76;100681.34;5056387;28;20029;-73
2023/03/17 10:57:20;;;;;;;0.82;0.50;;;;;;;21.76;34.13;100689.53;5051124;28;20031;-74
2023/03/17 10:59:51;;;;;;;1.98;0.88;;;;;;;21.76;33.84;100693.06;5040962;28;20759;-75
2023/03/17 11:02:26;;;;;;;2.08;1.05;;;;;;;21.76;34.22;100689.53;5056472;28;20044;-74
2023/03/17 11:05:16;;;;;;;1.27;1.00;;;;;;;21.75;34.22;100699.53;5054775;28;20040;-74
2023/03/17 11:07:42;;;;;;;1.33;0.80;;;;;;;21.75;34.14;100698.66;5059950;28;20095;-74
2023/03/17 11:10:20;;;;;;;2.83;0.90;;;;;;;21.74;34.14;100699.69;5061428;28;20471;-74
2023/03/17 11:12:51;;;;;;;1.92;1.35;;;;;;;21.74;34.17;100703.22;5056756;28;20084;-74
2023/03/17 11:15:18;;;;;;;0.88;0.68;;;;;;;21.74;34.09;100702.41;5051401;28;20522;-73
2023/03/17 11:18:16;;;;;;;1.77;1.00;;;;;;;21.73;34.33;100698.03;5054211;28;20446;-73
2023/03/17 11:21:08;;;;;;;2.38;0.90;;;;;;;21.54;34.34;100670.56;5054084;28;20043;-74
2023/03/17 11:23:54;;;;;;;1.40;0.80;;;;;;;21.46;34.43;100660.72;5052829;28;20041;-73
2023/03/17 11:26:41;;;;;;;1.63;0.93;;;;;;;21.76;34.24;100703.91;5049979;28;20538;-75